Time;durP1;ratioP1;P1;durP2;ratioP2;P2;SDS_P1;SDS_P2;PMS_P1;PMS_P2;Temp;Humidity;BMP_temperature;BMP_pressure;BME280_temperature;BME280_humidity;BME280_pressure;Samples;Min_cycle;Max_cycle;Signal;HPM_P1;HPM_P2
2023/12/19 00:02:01;;;;;;;1999.90;999.90;;;;;;;0.61;88.52;97440.38;5095556;28;20051;-62
2023/12/19 00:04:28;;;;;;;1999.90;999.90;;;;;;;0.48;88.91;97441.88;5095402;28;20071;-64
2023/12/19 00:06:55;;;;;;;1999.90;999.90;;;;;;;0.37;89.89;97439.13;5095210;28;20064;-62
2023/12/19 00:09:22;;;;;;;1999.90;999.90;;;;;;;0.35;90.66;97438.22;5095003;28;20044;-62
2023/12/19 00:11:49;;;;;;;1999.90;999.90;;;;;;;0.29;90.58;97441.56;5095204;28;20052;-62
2023/12/19 00:14:18;;;;;;;1999.90;999.90;;;;;;;0.30;90.64;97438.13;5095153;28;20101;-62
2023/12/19 00:16:45;;;;;;;1999.90;999.90;;;;;;;0.31;90.76;97437.31;5095353;28;20052;-62
2023/12/19 00:19:12;;;;;;;1999.90;999.90;;;;;;;0.32;90.99;97439.03;5094974;28;20052;-63
2023/12/19 00:21:39;;;;;;;1999.90;999.90;;;;;;;0.31;90.98;97439.00;5095151;28;20048;-64
2023/12/19 00:24:06;;;;;;;1999.90;999.90;;;;;;;0.34;91.21;97437.38;5095038;28;20044;-61
2023/12/19 00:26:34;;;;;;;1999.90;999.90;;;;;;;0.27;92.23;97430.34;5094866;28;20048;-64
2023/12/19 00:29:01;;;;;;;1999.90;999.90;;;;;;;0.28;92.37;97429.53;5094753;28;20056;-63
2023/12/19 00:31:29;;;;;;;1999.90;999.90;;;;;;;0.33;91.79;97427.03;5094442;28;20052;-63
2023/12/19 00:33:56;;;;;;;1999.90;999.90;;;;;;;0.36;92.08;97424.53;5094812;28;20080;-62
2023/12/19 00:36:24;;;;;;;1999.90;999.90;;;;;;;0.33;92.29;97416.75;5094687;28;20494;-63
2023/12/19 00:38:51;;;;;;;1999.90;999.90;;;;;;;0.45;92.80;97423.81;5094581;28;20066;-63
2023/12/19 00:41:18;;;;;;;1999.90;999.90;;;;;;;0.53;92.78;97427.34;5094437;28;20066;-64
2023/12/19 00:43:46;;;;;;;1999.90;999.90;;;;;;;0.58;92.04;97419.72;5094587;28;20052;-62
2023/12/19 00:46:13;;;;;;;1999.90;999.90;;;;;;;0.73;90.71;97431.97;5094407;28;20052;-62
2023/12/19 00:48:42;;;;;;;1999.90;999.90;;;;;;;0.75;90.49;97419.97;5094434;28;20047;-64
2023/12/19 00:51:12;;;;;;;1999.90;999.90;;;;;;;0.73;90.26;97425.09;5094538;28;20048;-64
2023/12/19 00:53:41;;;;;;;1999.90;999.90;;;;;;;0.65;90.02;97428.38;5094322;28;20482;-63
2023/12/19 00:56:09;;;;;;;1999.90;999.90;;;;;;;0.56;91.09;97432.56;5094232;28;20055;-63
2023/12/19 00:58:36;;;;;;;1999.90;999.90;;;;;;;0.62;90.76;97421.50;5094153;28;20055;-62
2023/12/19 01:01:03;;;;;;;1999.90;999.90;;;;;;;0.61;90.53;97427.50;5094476;28;20044;-63
2023/12/19 01:03:30;;;;;;;1999.90;999.90;;;;;;;0.57;90.57;97430.88;5094051;28;20146;-63
2023/12/19 01:06:01;;;;;;;1999.90;999.90;;;;;;;0.53;90.88;97431.63;5093965;28;20490;-62
2023/12/19 01:08:28;;;;;;;1999.90;999.90;;;;;;;0.50;91.44;97425.59;5094494;28;20094;-62
2023/12/19 01:10:55;;;;;;;1999.90;999.90;;;;;;;0.49;91.49;97418.69;5094105;28;20052;-61
2023/12/19 01:13:22;;;;;;;1999.90;999.90;;;;;;;0.43;92.13;97418.63;5093933;28;20593;-63
2023/12/19 01:15:49;;;;;;;1999.90;999.90;;;;;;;0.45;91.94;97416.09;5094004;28;20153;-63
2023/12/19 01:18:16;;;;;;;1999.90;999.90;;;;;;;0.42;91.79;97416.03;5093986;28;20478;-62
2023/12/19 01:20:44;;;;;;;1999.90;999.90;;;;;;;0.44;91.73;97411.75;5093826;28;20048;-64
2023/12/19 01:23:13;;;;;;;1999.90;999.90;;;;;;;0.45;91.26;97409.22;5093806;28;20051;-61
2023/12/19 01:25:40;;;;;;;1999.90;999.90;;;;;;;0.38;91.48;97415.09;5093729;28;20387;-63
2023/12/19 01:28:07;;;;;;;1999.90;999.90;;;;;;;0.35;91.47;97410.78;5093624;28;20070;-62
2023/12/19 01:30:34;;;;;;;1999.90;999.90;;;;;;;0.40;91.15;97409.97;5093407;28;20516;-62
2023/12/19 01:33:02;;;;;;;1999.90;999.90;;;;;;;0.36;91.53;97398.78;5093629;28;20048;-62
2023/12/19 01:35:28;;;;;;;1999.90;999.90;;;;;;;0.45;91.29;97398.91;5093656;28;20090;-63
2023/12/19 01:37:55;;;;;;;1999.90;999.90;;;;;;;0.47;90.22;97401.50;5093464;28;20056;-64
2023/12/19 01:40:24;;;;;;;1999.90;999.90;;;;;;;0.36;90.09;97402.19;5093421;28;20414;-62
2023/12/19 01:42:51;;;;;;;1999.90;999.90;;;;;;;0.18;91.16;97402.75;5093036;28;20044;-62
2023/12/19 01:45:19;;;;;;;1999.90;999.90;;;;;;;0.12;91.83;97408.66;5093670;28;20040;-63
2023/12/19 01:47:46;;;;;;;1999.90;999.90;;;;;;;0.15;92.30;97400.13;5093213;28;20123;-62
2023/12/19 01:50:14;;;;;;;1999.90;999.90;;;;;;;0.20;92.73;97398.50;5093377;28;20052;-62
2023/12/19 01:52:44;;;;;;;1999.90;999.90;;;;;;;0.28;92.08;97392.63;5093350;28;20086;-63
2023/12/19 01:55:14;;;;;;;1999.90;999.90;;;;;;;0.27;92.12;97386.59;5093332;28;20047;-61
2023/12/19 01:57:44;;;;;;;1999.90;999.90;;;;;;;0.24;92.17;97394.28;5093433;28;20048;-63
2023/12/19 02:00:13;;;;;;;1999.90;999.90;;;;;;;0.21;92.21;97387.38;5093323;28;20047;-63
2023/12/19 02:02:40;;;;;;;1999.90;999.90;;;;;;;0.18;92.76;97392.47;5093273;28;20063;-62
2023/12/19 02:05:08;;;;;;;1999.90;999.90;;;;;;;0.28;93.24;97393.50;5093070;28;20493;-61
2023/12/19 02:07:35;;;;;;;1999.90;999.90;;;;;;;0.40;92.73;97392.84;5092992;28;20159;-63
2023/12/19 02:10:02;;;;;;;1999.90;999.90;;;;;;;0.39;92.39;97387.66;5093239;28;20043;-62
2023/12/19 02:12:30;;;;;;;1999.90;999.90;;;;;;;0.37;91.97;97388.47;5093139;28;20060;-62
2023/12/19 02:14:58;;;;;;;1999.90;999.90;;;;;;;0.36;91.95;97386.75;5093114;28;20443;-63
2023/12/19 02:17:25;;;;;;;1999.90;999.90;;;;;;;0.30;92.11;97384.06;5092989;28;20066;-63
2023/12/19 02:19:53;;;;;;;1999.90;999.90;;;;;;;0.32;92.12;97378.94;5093156;28;20127;-63
2023/12/19 02:22:20;;;;;;;1999.90;999.90;;;;;;;0.25;92.42;97378.00;5093175;28;20043;-63
2023/12/19 02:24:48;;;;;;;1999.90;999.90;;;;;;;0.28;93.01;97372.03;5093080;28;20478;-63
2023/12/19 02:27:17;;;;;;;1999.90;999.90;;;;;;;0.33;92.81;97368.69;5092997;28;20050;-63
2023/12/19 02:29:44;;;;;;;1999.90;999.90;;;;;;;0.29;93.32;97366.03;5092740;28;20059;-63
2023/12/19 02:32:11;;;;;;;1999.90;999.90;;;;;;;0.28;93.85;97367.75;5093013;28;20044;-63
2023/12/19 02:34:38;;;;;;;1999.90;999.90;;;;;;;0.24;93.60;97368.56;5092915;28;20044;-62
2023/12/19 02:37:05;;;;;;;1999.90;999.90;;;;;;;0.27;93.67;97360.00;5092889;28;20422;-63
2023/12/19 02:39:32;;;;;;;1999.90;999.90;;;;;;;0.33;93.47;97357.53;5092764;28;20147;-64
2023/12/19 02:42:01;;;;;;;1999.90;999.90;;;;;;;0.33;92.53;97354.97;5093125;28;20123;-62
2023/12/19 02:44:28;;;;;;;1999.90;999.90;;;;;;;0.25;92.50;97354.84;5092827;28;20048;-63
2023/12/19 02:46:55;;;;;;;1999.90;999.90;;;;;;;0.25;92.99;97354.84;5092791;28;20132;-61
2023/12/19 02:49:22;;;;;;;1999.90;999.90;;;;;;;0.27;93.08;97349.72;5092772;28;20059;-61
2023/12/19 02:51:49;;;;;;;1999.90;999.90;;;;;;;0.28;92.74;97347.16;5092840;28;20136;-61
2023/12/19 02:54:16;;;;;;;1999.90;999.90;;;;;;;0.33;92.43;97355.81;5092783;28;20139;-61
2023/12/19 02:56:43;;;;;;;1999.90;999.90;;;;;;;0.34;92.15;97355.00;5097159;28;20048;-62
2023/12/19 02:59:11;;;;;;;1999.90;999.90;;;;;;;0.35;92.40;97354.13;5096921;28;20044;-62
2023/12/19 03:01:38;;;;;;;1999.90;999.90;;;;;;;0.36;92.19;97350.72;5096834;28;20074;-61
2023/12/19 03:04:05;;;;;;;1999.90;999.90;;;;;;;0.34;92.20;97356.69;5096405;28;20449;-62
2023/12/19 03:06:32;;;;;;;1999.90;999.90;;;;;;;0.32;91.78;97350.63;5096449;28;20050;-64
2023/12/19 03:08:59;;;;;;;1999.90;999.90;;;;;;;0.17;91.83;97357.28;5096359;28;20105;-62
2023/12/19 03:11:27;;;;;;;1999.90;999.90;;;;;;;0.10;93.24;97358.91;5096429;28;20040;-62
2023/12/19 03:13:54;;;;;;;1999.90;999.90;;;;;;;0.10;93.27;97355.44;5096175;28;20405;-64
2023/12/19 03:16:22;;;;;;;1999.90;999.90;;;;;;;0.08;93.63;97357.13;5096305;28;20079;-62
2023/12/19 03:18:49;;;;;;;1999.90;999.90;;;;;;;0.15;93.61;97351.22;5096131;28;20055;-64
2023/12/19 03:21:16;;;;;;;1999.90;999.90;;;;;;;0.13;93.13;97355.50;5096057;28;20559;-64
2023/12/19 03:23:43;;;;;;;1999.90;999.90;;;;;;;0.04;93.38;97351.06;5096065;28;20085;-60
2023/12/19 03:26:10;;;;;;;1999.90;999.90;;;;;;;0.15;93.99;97345.22;5096166;28;20050;-64
2023/12/19 03:28:37;;;;;;;1999.90;999.90;;;;;;;0.22;93.66;97355.66;5095872;28;20383;-63
2023/12/19 03:31:05;;;;;;;1999.90;999.90;;;;;;;0.27;93.31;97352.28;5095844;28;20078;-63
2023/12/19 03:33:33;;;;;;;1999.90;999.90;;;;;;;0.31;92.85;97348.91;5096055;28;20048;-64
2023/12/19 03:36:00;;;;;;;1999.90;999.90;;;;;;;0.31;92.66;97344.63;5096066;28;20044;-62
2023/12/19 03:38:27;;;;;;;1999.90;999.90;;;;;;;0.31;92.26;97352.38;5095701;28;20113;-63
2023/12/19 03:40:55;;;;;;;1999.90;999.90;;;;;;;0.37;92.30;97352.44;5095885;28;20139;-64
2023/12/19 03:43:22;;;;;;;1999.90;999.90;;;;;;;0.29;91.54;97350.59;5095792;28;20048;-63
2023/12/19 03:45:50;;;;;;;1999.90;999.90;;;;;;;0.32;91.92;97346.38;5095671;28;20052;-63
2023/12/19 03:48:17;;;;;;;1999.90;999.90;;;;;;;0.36;91.59;97350.72;5095520;28;20098;-64
2023/12/19 03:50:45;;;;;;;1999.90;999.90;;;;;;;0.41;91.48;97343.06;5095694;28;20444;-64
2023/12/19 03:53:12;;;;;;;1999.90;999.90;;;;;;;0.43;90.87;97346.53;5095577;28;20055;-63
2023/12/19 03:55:39;;;;;;;1999.90;999.90;;;;;;;0.43;90.59;97348.25;5095366;28;20048;-62
2023/12/19 03:58:06;;;;;;;1999.90;999.90;;;;;;;0.38;91.40;97337.88;5095333;28;20087;-61
2023/12/19 04:00:33;;;;;;;1999.90;999.90;;;;;;;0.33;91.11;97337.78;5095536;28;20047;-63
2023/12/19 04:03:00;;;;;;;1999.90;999.90;;;;;;;0.32;90.61;97338.63;5095502;28;20055;-62
2023/12/19 04:05:27;;;;;;;1999.90;999.90;;;;;;;0.23;91.37;97329.06;5095043;28;20404;-64
2023/12/19 04:07:55;;;;;;;1999.90;999.90;;;;;;;0.21;91.52;97333.31;5095323;28;20126;-61
2023/12/19 04:10:22;;;;;;;1999.90;999.90;;;;;;;0.24;91.72;97323.06;5095224;28;20113;-62
2023/12/19 04:12:48;;;;;;;1999.90;999.90;;;;;;;0.34;91.75;97333.53;5095132;28;20040;-62
2023/12/19 04:15:15;;;;;;;1999.90;999.90;;;;;;;0.38;91.45;97325.00;5095135;28;20119;-61
2023/12/19 04:17:42;;;;;;;1999.90;999.90;;;;;;;0.41;91.29;97326.75;5095071;28;20092;-60
2023/12/19 04:20:11;;;;;;;1999.90;999.90;;;;;;;0.47;90.25;97331.97;5095332;28;20058;-63
2023/12/19 04:22:38;;;;;;;1999.90;999.90;;;;;;;0.45;90.48;97331.97;5095203;28;20123;-62
2023/12/19 04:25:08;;;;;;;1999.90;999.90;;;;;;;0.44;90.62;97334.50;5095134;28;20044;-63
2023/12/19 04:27:35;;;;;;;1999.90;999.90;;;;;;;0.46;89.91;97338.00;5095243;28;20055;-62
2023/12/19 04:30:03;;;;;;;1999.90;999.90;;;;;;;0.47;89.90;97340.59;5094527;28;20087;-63
2023/12/19 04:32:30;;;;;;;1999.90;999.90;;;;;;;0.41;90.13;97347.34;5094847;28;20486;-64
2023/12/19 04:34:57;;;;;;;1999.90;999.90;;;;;;;0.44;90.35;97347.38;5094766;28;20048;-60
2023/12/19 04:37:24;;;;;;;1999.90;999.90;;;;;;;0.36;90.24;97353.28;5094783;28;20155;-62
2023/12/19 04:39:51;;;;;;;1999.90;999.90;;;;;;;0.38;90.56;97350.75;5094712;28;20052;-61
2023/12/19 04:42:20;;;;;;;1999.90;999.90;;;;;;;0.30;90.21;97344.63;5094646;28;20079;-62
2023/12/19 04:44:47;;;;;;;1999.90;999.90;;;;;;;0.21;91.04;97343.59;5094511;28;20052;-62
2023/12/19 04:47:14;;;;;;;1999.90;999.90;;;;;;;0.18;91.17;97343.56;5094720;28;20056;-63
2023/12/19 04:49:41;;;;;;;1999.90;999.90;;;;;;;0.20;91.27;97341.88;5094391;28;20052;-64
2023/12/19 04:52:09;;;;;;;1999.90;999.90;;;;;;;0.25;91.01;97342.81;5094420;28;20080;-64
2023/12/19 04:54:36;;;;;;;1999.90;999.90;;;;;;;0.27;90.82;97347.13;5094364;28;20047;-63
2023/12/19 04:57:03;;;;;;;1999.90;999.90;;;;;;;0.25;91.11;97349.69;5094456;28;20486;-62
2023/12/19 04:59:32;;;;;;;1999.90;999.90;;;;;;;0.28;91.23;97342.00;5094280;28;20047;-64
2023/12/19 05:01:59;;;;;;;1999.90;999.90;;;;;;;0.29;91.05;97341.16;5094417;28;20052;-62
2023/12/19 05:04:27;;;;;;;1999.90;999.90;;;;;;;0.32;91.29;97348.06;5094125;28;20513;-63
2023/12/19 05:06:54;;;;;;;1999.90;999.90;;;;;;;0.22;91.43;97347.94;5094181;28;20141;-64
2023/12/19 05:09:22;;;;;;;1999.90;999.90;;;;;;;0.18;91.81;97350.44;5094200;28;20058;-60
2023/12/19 05:11:49;;;;;;;1999.90;999.90;;;;;;;0.19;91.80;97345.31;5093886;28;20555;-62
2023/12/19 05:14:16;;;;;;;1999.90;999.90;;;;;;;0.17;91.44;97352.13;5094252;28;20093;-63
2023/12/19 05:16:44;;;;;;;1999.90;999.90;;;;;;;0.11;91.79;97352.91;5093847;28;20054;-61
2023/12/19 05:19:11;;;;;;;1999.90;999.90;;;;;;;0.18;92.61;97350.44;5093621;28;20063;-62
2023/12/19 05:21:39;;;;;;;1999.90;999.90;;;;;;;0.22;91.76;97353.09;5093964;28;20047;-61
2023/12/19 05:24:09;;;;;;;1999.90;999.90;;;;;;;0.23;91.14;97353.94;5093881;28;20448;-64
2023/12/19 05:26:36;;;;;;;1999.90;999.90;;;;;;;0.16;91.03;97347.84;5093838;28;20048;-62
2023/12/19 05:29:03;;;;;;;1999.90;999.90;;;;;;;0.23;91.12;97357.38;5093680;28;20113;-61
2023/12/19 05:31:30;;;;;;;1999.90;999.90;;;;;;;0.15;91.47;97358.09;5093470;28;20040;-62
2023/12/19 05:33:58;;;;;;;1999.90;999.90;;;;;;;0.17;91.71;97358.97;5093734;28;20048;-62
2023/12/19 05:36:26;;;;;;;1999.90;999.90;;;;;;;0.20;91.49;97365.06;5093539;28;20044;-62
2023/12/19 05:38:53;;;;;;;1999.90;999.90;;;;;;;0.25;91.51;97368.56;5093594;28;20079;-61
2023/12/19 05:41:20;;;;;;;1999.90;999.90;;;;;;;0.31;91.29;97369.50;5093416;28;20048;-61
2023/12/19 05:43:47;;;;;;;1999.90;999.90;;;;;;;0.35;90.62;97367.00;5093458;28;20044;-63
2023/12/19 05:46:15;;;;;;;1999.90;999.90;;;;;;;0.40;91.10;97374.81;5093437;28;20490;-64
2023/12/19 05:48:43;;;;;;;1999.90;999.90;;;;;;;0.44;90.74;97374.00;5093462;28;20044;-61
2023/12/19 05:51:14;;;;;;;1999.90;999.90;;;;;;;0.40;90.02;97382.53;5093199;28;20448;-64
2023/12/19 05:53:41;;;;;;;1999.90;999.90;;;;;;;0.41;89.48;97380.81;5093379;28;20123;-64
2023/12/19 05:56:13;;;;;;;1999.90;999.90;;;;;;;0.43;89.57;97384.28;5093328;28;20051;-62
2023/12/19 05:58:41;;;;;;;1999.90;999.90;;;;;;;0.36;89.37;97391.06;5093300;28;20048;-61
2023/12/19 06:01:08;;;;;;;1999.90;999.90;;;;;;;0.34;89.71;97379.84;5093312;28;20117;-64
2023/12/19 06:03:36;;;;;;;1999.90;999.90;;;;;;;0.18;90.22;97376.16;5093277;28;20059;-64
2023/12/19 06:06:04;;;;;;;1999.90;999.90;;;;;;;0.13;91.71;97376.09;5093198;28;20083;-64
2023/12/19 06:08:33;;;;;;;1999.90;999.90;;;;;;;0.25;91.66;97372.84;5093291;28;20048;-63
2023/12/19 06:11:00;;;;;;;1999.90;999.90;;;;;;;0.24;91.04;97374.56;5093002;28;20505;-64
2023/12/19 06:13:29;;;;;;;1999.90;999.90;;;;;;;0.33;90.60;97373.81;5093061;28;20097;-63
2023/12/19 06:15:57;;;;;;;1999.90;999.90;;;;;;;0.33;90.67;97378.97;5092891;28;20493;-61
2023/12/19 06:18:24;;;;;;;1999.90;999.90;;;;;;;0.31;90.64;97372.06;5093147;28;20052;-63
2023/12/19 06:20:52;;;;;;;1999.90;999.90;;;;;;;0.27;90.99;97373.72;5093066;28;20048;-64
2023/12/19 06:23:19;;;;;;;1999.90;999.90;;;;;;;0.47;92.40;97376.63;5093220;28;20135;-64
2023/12/19 06:25:48;;;;;;;1999.90;999.90;;;;;;;1.29;93.50;97376.03;5093061;28;20127;-62
2023/12/19 06:28:16;;;;;;;1999.90;999.90;;;;;;;3.05;88.55;97381.00;5093234;28;20071;-63
2023/12/19 06:30:44;;;;;;;1999.90;999.90;;;;;;;5.22;76.88;97384.75;5096780;28;20051;-63
2023/12/19 06:33:11;;;;;;;1999.90;999.90;;;;;;;6.93;67.97;97395.81;5097083;28;20066;-63
2023/12/19 06:35:42;;;;;;;1999.90;999.90;;;;;;;8.87;60.85;97411.53;5097002;28;20048;-62
2023/12/19 06:38:09;;;;;;;1999.90;999.90;;;;;;;10.60;54.52;97422.88;5097030;28;20054;-62
2023/12/19 06:40:37;;;;;;;1999.90;999.90;;;;;;;12.25;50.46;97405.31;5096923;28;20395;-64
2023/12/19 06:43:10;;;;;;;1999.90;999.90;;;;;;;13.75;46.20;97394.19;5096939;28;20135;-61
2023/12/19 06:45:38;;;;;;;1999.90;999.90;;;;;;;15.02;43.00;97396.25;5096842;28;20135;-62
2023/12/19 06:48:05;;;;;;;1999.90;999.90;;;;;;;16.09;40.16;97402.19;5096765;28;20048;-64
2023/12/19 06:50:32;;;;;;;1999.90;999.90;;;;;;;17.06;38.08;97401.03;5097030;28;20052;-62
2023/12/19 06:53:00;;;;;;;1999.90;999.90;;;;;;;17.91;36.67;97394.94;5096614;28;20048;-62
2023/12/19 06:55:30;;;;;;;1999.90;999.90;;;;;;;18.85;34.94;97401.25;5096599;28;20508;-62
2023/12/19 06:57:57;;;;;;;1999.90;999.90;;;;;;;19.65;32.13;97394.78;5096609;28;20052;-61
2023/12/19 07:00:28;;;;;;;1999.90;999.90;;;;;;;20.40;31.65;97400.78;5096715;28;20185;-62
2023/12/19 07:02:55;;;;;;;1999.90;999.90;;;;;;;21.10;29.41;97400.69;5096723;28;20062;-62
2023/12/19 07:05:22;;;;;;;1999.90;999.90;;;;;;;21.56;28.99;97398.53;5096762;28;20129;-64
2023/12/19 07:07:51;;;;;;;1999.90;999.90;;;;;;;21.99;28.37;97400.00;5096540;28;20125;-62
2023/12/19 07:10:19;;;;;;;1999.90;999.90;;;;;;;22.39;28.08;97395.44;5096318;28;20052;-63
2023/12/19 07:12:47;;;;;;;1999.90;999.90;;;;;;;22.65;27.36;97398.88;5096316;28;20056;-63
2023/12/19 07:15:14;;;;;;;1999.90;999.90;;;;;;;22.80;27.42;97404.88;5096389;28;20124;-63
2023/12/19 07:17:46;;;;;;;1999.90;999.90;;;;;;;23.01;27.44;97398.88;5096632;28;20052;-63
2023/12/19 07:20:13;;;;;;;1999.90;999.90;;;;;;;23.30;27.11;97392.28;5096271;28;20051;-63
2023/12/19 07:22:41;;;;;;;1999.90;999.90;;;;;;;23.74;26.75;97397.84;5096513;28;20044;-61
2023/12/19 07:25:09;;;;;;;1999.90;999.90;;;;;;;24.04;26.33;97396.38;5096425;28;20121;-63
2023/12/19 07:27:37;;;;;;;1999.90;999.90;;;;;;;24.22;26.23;97387.88;5096093;28;20483;-61
2023/12/19 07:30:09;;;;;;;1999.90;999.90;;;;;;;24.77;25.50;97388.84;5095915;28;20052;-64
2023/12/19 07:32:36;;;;;;;1999.90;999.90;;;;;;;24.90;25.63;97394.03;5096019;28;20044;-64
2023/12/19 07:35:07;;;;;;;1999.90;999.90;;;;;;;25.03;25.05;97396.53;5095949;28;20118;-63
2023/12/19 07:37:34;;;;;;;1999.90;999.90;;;;;;;24.97;24.32;97379.16;5095909;28;20052;-63
2023/12/19 07:40:01;;;;;;;1999.90;999.90;;;;;;;24.86;23.81;97386.22;5095224;28;20044;-63
2023/12/19 07:42:28;;;;;;;1999.90;999.90;;;;;;;24.91;23.42;97390.38;5095801;28;20048;-63
2023/12/19 07:44:55;;;;;;;1999.90;999.90;;;;;;;25.21;23.37;97383.41;5095802;28;20102;-64
2023/12/19 07:47:22;;;;;;;1999.90;999.90;;;;;;;25.59;22.94;97383.78;5095793;28;20051;-65
2023/12/19 07:49:49;;;;;;;39.60;37.50;;;;;;;26.07;23.17;97392.19;5095496;28;20485;-62
2023/12/19 07:52:18;;;;;;;38.13;36.03;;;;;;;26.20;23.83;97391.94;5095659;28;20055;-63
2023/12/19 07:54:45;;;;;;;35.72;33.83;;;;;;;26.33;24.24;97389.88;5095523;28;20040;-61
2023/12/19 07:57:12;;;;;;;37.42;35.42;;;;;;;26.62;23.30;97386.41;5095604;28;20044;-63
2023/12/19 07:59:39;;;;;;;36.92;35.00;;;;;;;26.82;23.19;97382.91;5095828;28;20040;-64
2023/12/19 08:02:07;;;;;;;31.90;30.10;;;;;;;26.96;23.06;97381.59;5095316;28;20048;-65
2023/12/19 08:04:35;;;;;;;34.63;32.50;;;;;;;27.15;22.18;97382.63;5095397;28;20054;-63
2023/12/19 08:07:03;;;;;;;34.22;32.17;;;;;;;27.51;20.94;97380.13;5095342;28;20123;-65
2023/12/19 08:09:33;;;;;;;34.20;32.35;;;;;;;27.76;22.18;97385.91;5095252;28;20087;-64
2023/12/19 08:12:00;;;;;;;34.85;32.97;;;;;;;27.84;21.24;97386.00;5077453;28;20125;-62
2023/12/19 08:14:27;;;;;;;34.47;32.58;;;;;;;27.83;22.38;97387.00;5095433;28;20047;-64
2023/12/19 08:16:54;;;;;;;32.47;30.67;;;;;;;27.79;22.31;97379.38;5095377;28;20051;-64
2023/12/19 08:19:22;;;;;;;31.73;29.92;;;;;;;27.93;22.67;97373.50;5095270;28;20467;-63
2023/12/19 08:21:49;;;;;;;32.33;30.58;;;;;;;28.08;22.40;97375.72;5094999;28;20048;-64
2023/12/19 08:24:17;;;;;;;33.33;31.45;;;;;;;27.99;21.88;97372.09;5095059;28;20148;-63
2023/12/19 08:26:49;;;;;;;36.33;34.25;;;;;;;27.65;22.18;97370.78;5095090;28;20098;-63
2023/12/19 08:29:17;;;;;;;34.03;32.13;;;;;;;27.12;22.22;97368.50;5094897;28;20079;-62
2023/12/19 08:31:46;;;;;;;32.28;30.48;;;;;;;26.99;21.82;97376.84;5094739;28;20060;-64
2023/12/19 08:34:13;;;;;;;36.22;34.22;;;;;;;26.41;21.23;97366.91;5095042;28;20059;-63
2023/12/19 08:36:40;;;;;;;33.95;32.05;;;;;;;26.14;20.88;97363.00;5094775;28;20048;-65
2023/12/19 08:39:10;;;;;;;32.33;30.52;;;;;;;25.13;22.32;97359.13;5094777;28;20051;-64
2023/12/19 08:41:37;;;;;;;32.92;31.02;;;;;;;24.30;24.92;97352.50;5094608;28;20058;-64
2023/12/19 08:44:06;;;;;;;37.88;35.80;;;;;;;23.72;26.02;97344.53;5094718;28;20050;-64
2023/12/19 08:46:33;;;;;;;53.35;50.35;;;;;;;22.82;26.46;97338.09;5094936;28;20052;-64
2023/12/19 08:49:00;;;;;;;59.88;56.55;;;;;;;22.33;27.74;97340.75;5094718;28;20051;-61
2023/12/19 08:51:28;;;;;;;58.35;55.08;;;;;;;21.79;28.14;97334.84;5094316;28;20048;-65
2023/12/19 08:53:56;;;;;;;62.85;59.35;;;;;;;21.44;28.39;97329.22;5094492;28;20044;-64
2023/12/19 08:56:23;;;;;;;59.65;56.38;;;;;;;20.87;29.16;97328.63;5094312;28;20075;-63
2023/12/19 08:58:50;;;;;;;73.03;68.82;;;;;;;20.93;29.15;97322.09;5094385;28;20098;-64
2023/12/19 09:01:19;;;;;;;87.75;82.90;;;;;;;20.62;27.92;97319.63;5094254;28;20080;-62
2023/12/19 09:03:46;;;;;;;1999.90;999.90;;;;;;;20.16;28.70;97319.06;5094479;28;20044;-63
2023/12/19 09:06:13;;;;;;;1999.90;999.90;;;;;;;19.57;28.72;97304.19;5094166;28;20457;-62
2023/12/19 09:08:40;;;;;;;1999.90;999.90;;;;;;;18.76;30.93;97304.59;5094288;28;20048;-63
2023/12/19 09:11:08;;;;;;;1999.90;999.90;;;;;;;18.23;32.48;97294.38;5094185;28;20135;-65
2023/12/19 09:13:38;;;;;;;1999.90;999.90;;;;;;;17.85;31.34;97286.78;5094066;28;20079;-64
2023/12/19 09:16:06;;;;;;;1999.90;999.90;;;;;;;17.32;32.53;97286.97;5094061;28;20106;-64
2023/12/19 09:18:35;;;;;;;1999.90;999.90;;;;;;;16.82;34.31;97281.63;5094010;28;20123;-63
2023/12/19 09:21:02;;;;;;;1999.90;999.90;;;;;;;16.47;35.22;97270.13;5093964;28;20524;-61
2023/12/19 09:23:29;;;;;;;1999.90;999.90;;;;;;;16.08;36.08;97276.44;5093819;28;20086;-64
2023/12/19 09:25:56;;;;;;;1999.90;999.90;;;;;;;15.96;36.56;97277.88;5093862;28;20090;-65
2023/12/19 09:28:29;;;;;;;1999.90;999.90;;;;;;;15.77;37.25;97274.31;5093763;28;20065;-64
2023/12/19 09:30:56;;;;;;;1999.90;999.90;;;;;;;15.51;37.90;97272.91;5093439;28;20102;-63
2023/12/19 09:33:23;;;;;;;1999.90;999.90;;;;;;;15.19;39.43;97269.97;5093797;28;20040;-64
2023/12/19 09:35:52;;;;;;;1999.90;999.90;;;;;;;15.14;39.89;97262.28;5093605;28;20086;-61
2023/12/19 09:38:19;;;;;;;1999.90;999.90;;;;;;;15.01;40.27;97262.81;5093619;28;20493;-62
2023/12/19 09:40:46;;;;;;;1999.90;999.90;;;;;;;15.04;39.62;97264.47;5093594;28;20051;-60
2023/12/19 09:43:13;;;;;;;1999.90;999.90;;;;;;;15.00;39.35;97255.00;5093598;28;20052;-62
2023/12/19 09:45:43;;;;;;;1999.90;999.90;;;;;;;14.91;39.86;97251.00;5093558;28;20055;-61
2023/12/19 09:48:14;;;;;;;1999.90;999.90;;;;;;;14.85;40.14;97246.00;5093636;28;20047;-61
2023/12/19 09:50:43;;;;;;;1999.90;999.90;;;;;;;14.69;41.51;97245.78;5093603;28;20048;-62
2023/12/19 09:53:14;;;;;;;1999.90;999.90;;;;;;;14.52;41.57;97242.09;5093386;28;20054;-62
2023/12/19 09:55:44;;;;;;;1999.90;999.90;;;;;;;14.42;41.81;97233.72;5093437;28;20083;-62
2023/12/19 09:58:13;;;;;;;1999.90;999.90;;;;;;;14.51;40.29;97240.41;5093502;28;20127;-61
2023/12/19 10:00:44;;;;;;;1999.90;999.90;;;;;;;14.42;41.52;97240.78;5093418;28;20040;-63
2023/12/19 10:03:12;;;;;;;1999.90;999.90;;;;;;;14.52;41.18;97235.06;5092969;28;20121;-61
2023/12/19 10:05:39;;;;;;;1999.90;999.90;;;;;;;14.50;41.42;97225.50;5075424;28;20044;-63
2023/12/19 10:08:07;;;;;;;1999.90;999.90;;;;;;;14.48;41.24;97228.19;5093205;28;20544;-63
2023/12/19 10:10:57;;;;;;;1999.90;999.90;;;;;;;14.49;41.04;97219.41;5093133;28;20052;-63
2023/12/19 10:13:29;;;;;;;1999.90;999.90;;;;;;;14.36;40.20;97197.16;5093311;28;20044;-62
2023/12/19 10:16:08;;;;;;;1999.90;999.90;;;;;;;14.39;41.37;97203.13;5093212;28;20109;-63
2023/12/19 10:18:36;;;;;;;1999.90;999.90;;;;;;;14.43;40.47;97209.13;5093151;28;20050;-62
2023/12/19 10:21:09;;;;;;;1999.90;999.90;;;;;;;14.48;40.40;97207.13;5093120;28;20101;-60
2023/12/19 10:23:37;;;;;;;1999.90;999.90;;;;;;;14.50;40.26;97204.44;5093209;28;20055;-64
2023/12/19 10:26:06;;;;;;;1999.90;999.90;;;;;;;14.60;40.45;97189.13;5092984;28;20051;-61
2023/12/19 10:28:34;;;;;;;1999.90;999.90;;;;;;;14.62;40.02;97190.75;5093065;28;20044;-62
2023/12/19 10:31:12;;;;;;;1999.90;999.90;;;;;;;14.71;39.51;97200.03;5092759;28;20055;-61
2023/12/19 10:33:46;;;;;;;1999.90;999.90;;;;;;;14.76;39.24;97192.78;5093073;28;20092;-63
2023/12/19 10:36:24;;;;;;;1999.90;999.90;;;;;;;14.75;39.36;97190.22;5093034;28;20052;-62
2023/12/19 10:38:51;;;;;;;1999.90;999.90;;;;;;;14.62;39.11;97187.25;5092944;28;20448;-62
2023/12/19 10:41:25;;;;;;;1999.90;999.90;;;;;;;14.62;40.07;97184.63;5092918;28;20402;-61
2023/12/19 10:43:55;;;;;;;1999.90;999.90;;;;;;;14.57;40.09;97178.72;5092978;28;20052;-64
2023/12/19 10:46:24;;;;;;;1999.90;999.90;;;;;;;14.52;40.02;97173.66;5093081;28;20044;-61
2023/12/19 10:48:53;;;;;;;1999.90;999.90;;;;;;;14.53;39.77;97173.59;5092776;28;20131;-60
2023/12/19 10:51:32;;;;;;;1999.90;999.90;;;;;;;14.49;39.88;97171.16;5092852;28;20180;-63
2023/12/19 10:54:08;;;;;;;1999.90;999.90;;;;;;;14.57;39.76;97163.75;5092761;28;20106;-63
2023/12/19 10:56:51;;;;;;;1999.90;999.90;;;;;;;14.66;38.94;97170.41;5092729;28;20490;-63
2023/12/19 10:59:29;;;;;;;1999.90;999.90;;;;;;;14.61;38.62;97161.84;5092704;28;20103;-62
2023/12/19 11:02:04;;;;;;;1999.90;999.90;;;;;;;14.60;39.08;97154.91;5092713;28;20097;-64
2023/12/19 11:04:36;;;;;;;1999.90;999.90;;;;;;;14.63;38.91;97152.13;5092601;28;20094;-64
2023/12/19 11:07:11;;;;;;;1999.90;999.90;;;;;;;14.59;39.30;97145.25;5092648;28;20051;-64